createdAt,value
2023-02-02T00:00:48.967Z,1.04
2023-02-02T00:01:49.064Z,1.04
2023-02-02T00:02:49.298Z,1.04
2023-02-02T00:03:49.423Z,1.04
2023-02-02T00:04:49.472Z,1.04
2023-02-02T00:05:49.565Z,1.04
2023-02-02T00:06:49.712Z,1.04
2023-02-02T00:07:49.817Z,1.04
2023-02-02T00:08:49.915Z,1.04
2023-02-02T00:09:50.016Z,1.04
2023-02-02T00:10:50.118Z,1.04
2023-02-02T00:11:50.231Z,1.04
2023-02-02T00:12:50.370Z,1.04
2023-02-02T00:13:50.472Z,1.04
2023-02-02T00:14:50.636Z,1.04
2023-02-02T00:15:50.790Z,1.04
2023-02-02T00:16:50.883Z,1.04
2023-02-02T00:17:51.031Z,1.04
2023-02-02T00:18:51.161Z,1.04
2023-02-02T00:19:51.285Z,1.04
2023-02-02T00:20:51.435Z,1.04
2023-02-02T00:21:51.584Z,1.04
2023-02-02T00:22:51.735Z,1.04
2023-02-02T00:23:51.894Z,1.04
2023-02-02T00:24:52.048Z,1.04
2023-02-02T00:25:52.188Z,1.04
2023-02-02T00:26:52.409Z,1.04
2023-02-02T00:27:52.405Z,1.04
2023-02-02T00:28:52.492Z,1.04
2023-02-02T00:29:52.607Z,1.04
2023-02-02T00:30:52.719Z,1.04
2023-02-02T00:31:52.924Z,1.04
2023-02-02T00:32:53.037Z,1.04
2023-02-02T00:33:53.164Z,1.04
2023-02-02T00:34:53.309Z,1.04
2023-02-02T00:35:53.411Z,1.04
2023-02-02T00:36:53.514Z,1.04
2023-02-02T00:37:53.663Z,1.04
2023-02-02T00:38:53.814Z,1.04
2023-02-02T00:39:53.926Z,1.04
2023-02-02T00:40:54.019Z,1.04
2023-02-02T00:41:54.116Z,1.04
2023-02-02T00:42:54.212Z,1.04
2023-02-02T00:43:54.328Z,1.04
2023-02-02T00:44:54.469Z,1.04
2023-02-02T00:45:54.587Z,1.04
2023-02-02T00:46:54.734Z,1.04
2023-02-02T00:47:54.819Z,1.04
2023-02-02T00:48:54.918Z,1.04
2023-02-02T00:49:55.076Z,1.04
2023-02-02T00:50:55.172Z,1.04
2023-02-02T00:51:55.334Z,1.04
2023-02-02T00:52:55.484Z,1.04
2023-02-02T00:53:55.585Z,1.04
2023-02-02T00:54:55.733Z,1.04
2023-02-02T00:55:55.893Z,1.04
2023-02-02T00:56:56.033Z,1.04
2023-02-02T00:57:56.183Z,1.04
2023-02-02T00:58:56.291Z,1.04
2023-02-02T00:59:56.385Z,1.04
2023-02-02T01:00:56.538Z,1.04
2023-02-02T01:01:56.743Z,1.04
2023-02-02T01:02:56.797Z,1.04
2023-02-02T01:03:56.893Z,1.04
2023-02-02T01:04:56.990Z,1.04
2023-02-02T01:05:57.127Z,1.04
2023-02-02T01:06:57.254Z,1.04
2023-02-02T01:07:57.346Z,1.04
2023-02-02T01:08:57.447Z,1.04
2023-02-02T01:09:57.553Z,1.04
2023-02-02T01:10:57.666Z,1.04
2023-02-02T01:11:57.759Z,1.04
2023-02-02T01:12:57.906Z,1.04
2023-02-02T01:13:58.105Z,1.04
2023-02-02T01:14:58.217Z,1.04
2023-02-02T01:15:58.362Z,1.04
2023-02-02T01:16:58.466Z,1.04
2023-02-02T01:17:58.568Z,1.04
2023-02-02T01:18:58.717Z,1.04
2023-02-02T01:19:58.875Z,1.04
2023-02-02T01:20:59.018Z,1.04
2023-02-02T01:21:59.120Z,1.04
2023-02-02T01:22:59.225Z,1.04
2023-02-02T01:23:59.328Z,1.04
2023-02-02T01:24:59.480Z,1.04
2023-02-02T01:25:59.620Z,1.04
2023-02-02T01:26:59.781Z,1.04
2023-02-02T01:27:59.934Z,1.04
2023-02-02T01:29:00.031Z,1.04
2023-02-02T01:30:00.175Z,1.04
2023-02-02T01:31:00.362Z,1.04
2023-02-02T01:32:00.531Z,1.04
2023-02-02T01:33:00.584Z,1.04
2023-02-02T01:34:00.735Z,1.04
2023-02-02T01:35:00.846Z,1.04
2023-02-02T01:36:00.935Z,1.04
2023-02-02T01:37:01.087Z,1.04
2023-02-02T01:38:01.229Z,1.04
2023-02-02T01:39:01.347Z,1.04
2023-02-02T01:40:01.439Z,1.04
2023-02-02T01:41:01.571Z,1.04
2023-02-02T01:42:01.649Z,1.04
2023-02-02T01:43:01.740Z,1.04
2023-02-02T01:44:01.897Z,1.04
2023-02-02T01:45:02.003Z,1.04
2023-02-02T01:46:02.140Z,1.04
2023-02-02T01:47:02.196Z,1.04
2023-02-02T01:48:02.366Z,1.04
2023-02-02T01:49:02.470Z,1.04
2023-02-02T01:50:02.557Z,1.04
2023-02-02T01:51:02.658Z,1.04
2023-02-02T01:52:02.757Z,1.04
2023-02-02T01:53:02.865Z,1.04
2023-02-02T01:54:02.962Z,1.04
2023-02-02T01:55:03.114Z,1.04
2023-02-02T01:56:03.277Z,1.04
2023-02-02T01:57:03.371Z,1.04
2023-02-02T01:58:03.474Z,1.04
2023-02-02T01:59:03.578Z,1.04
2023-02-02T02:00:03.723Z,1.04
2023-02-02T02:01:03.914Z,1.04
2023-02-02T02:02:04.091Z,1.04
2023-02-02T02:03:04.126Z,1.04
2023-02-02T02:04:04.234Z,1.04
2023-02-02T02:05:04.326Z,1.04
2023-02-02T02:06:04.513Z,1.04
2023-02-02T02:07:04.627Z,1.04
2023-02-02T02:08:04.782Z,1.04
2023-02-02T02:09:04.941Z,1.04
2023-02-02T02:10:05.082Z,1.04
2023-02-02T02:11:05.235Z,1.04
2023-02-02T02:12:05.342Z,1.04
2023-02-02T02:13:05.461Z,1.04
2023-02-02T02:14:05.592Z,1.04
2023-02-02T02:15:05.736Z,1.04
2023-02-02T02:16:05.844Z,1.04
2023-02-02T02:17:05.994Z,1.04
2023-02-02T02:18:06.094Z,1.04
2023-02-02T02:19:06.247Z,1.04
2023-02-02T02:20:06.416Z,1.04
2023-02-02T02:21:06.497Z,1.04
2023-02-02T02:22:06.600Z,1.04
2023-02-02T02:23:06.704Z,1.04
2023-02-02T02:24:06.805Z,1.04
2023-02-02T02:25:06.903Z,1.04
2023-02-02T02:26:07.013Z,1.04
2023-02-02T02:27:07.106Z,1.04
2023-02-02T02:28:07.258Z,1.04
2023-02-02T02:29:07.362Z,1.04
2023-02-02T02:30:07.506Z,1.04
2023-02-02T02:31:07.697Z,1.04
2023-02-02T02:32:07.718Z,1.04
2023-02-02T02:33:07.847Z,1.04
2023-02-02T02:34:07.974Z,1.04
2023-02-02T02:35:08.077Z,1.04
2023-02-02T02:36:08.221Z,1.04
2023-02-02T02:37:08.323Z,1.04
2023-02-02T02:38:08.471Z,1.04
2023-02-02T02:39:08.576Z,1.04
2023-02-02T02:40:08.698Z,1.04
2023-02-02T02:41:08.779Z,1.04
2023-02-02T02:42:08.929Z,1.04
2023-02-02T02:43:09.082Z,1.04
2023-02-02T02:44:09.229Z,1.04
2023-02-02T02:45:09.338Z,1.04
2023-02-02T02:46:09.488Z,1.04
2023-02-02T02:47:09.540Z,1.04
2023-02-02T02:48:09.635Z,1.04
2023-02-02T02:49:09.757Z,1.04
2023-02-02T02:50:09.856Z,1.04
2023-02-02T02:51:09.989Z,1.04
2023-02-02T02:52:10.109Z,1.04
2023-02-02T02:53:10.210Z,1.04
2023-02-02T02:54:10.359Z,1.04
2023-02-02T02:55:10.507Z,1.04
2023-02-02T02:56:10.608Z,1.04
2023-02-02T02:57:10.775Z,1.04
2023-02-02T02:58:10.853Z,1.04
2023-02-02T02:59:10.965Z,1.04
2023-02-02T03:00:11.070Z,1.04
2023-02-02T03:01:11.219Z,1.04
2023-02-02T03:02:11.272Z,1.04
2023-02-02T03:03:11.424Z,1.04
2023-02-02T03:04:11.569Z,1.04
2023-02-02T03:05:11.696Z,1.04
2023-02-02T03:06:11.769Z,1.04
2023-02-02T03:07:11.871Z,1.04
2023-02-02T03:08:11.963Z,1.04
2023-02-02T03:09:12.072Z,1.04
2023-02-02T03:10:12.166Z,1.04
2023-02-02T03:11:12.320Z,1.04
2023-02-02T03:12:12.469Z,1.04
2023-02-02T03:13:12.574Z,1.04
2023-02-02T03:14:12.729Z,1.04
2023-02-02T03:15:12.876Z,1.04
2023-02-02T03:16:13.087Z,1.04
2023-02-02T03:17:13.187Z,1.04
2023-02-02T03:18:13.292Z,1.04
2023-02-02T03:19:13.447Z,1.04
2023-02-02T03:20:13.536Z,1.04
2023-02-02T03:21:13.639Z,1.04
2023-02-02T03:22:13.752Z,1.04
2023-02-02T03:23:13.852Z,1.04
2023-02-02T03:24:13.988Z,1.04
2023-02-02T03:25:14.147Z,1.04
2023-02-02T03:26:14.303Z,1.04
2023-02-02T03:27:14.403Z,1.04
2023-02-02T03:28:14.493Z,1.04
2023-02-02T03:29:14.594Z,1.04
2023-02-02T03:30:14.746Z,1.04
2023-02-02T03:31:14.914Z,1.04
2023-02-02T03:32:14.962Z,1.04
2023-02-02T03:33:15.050Z,1.04
2023-02-02T03:34:15.205Z,1.04
2023-02-02T03:35:15.368Z,1.04
2023-02-02T03:36:15.465Z,1.04
2023-02-02T03:37:15.578Z,1.04
2023-02-02T03:38:15.724Z,1.04
2023-02-02T03:39:15.817Z,1.04
2023-02-02T03:40:15.971Z,1.04
2023-02-02T03:41:16.123Z,1.04
2023-02-02T03:42:16.213Z,1.04
2023-02-02T03:43:16.318Z,1.04
2023-02-02T03:44:16.417Z,1.04
2023-02-02T03:45:16.521Z,1.04
2023-02-02T03:46:16.700Z,1.04
2023-02-02T03:47:16.769Z,1.04
2023-02-02T03:48:16.872Z,1.04
2023-02-02T03:49:16.975Z,1.04
2023-02-02T03:50:17.127Z,1.04
2023-02-02T03:51:17.226Z,1.04
2023-02-02T03:52:17.328Z,1.04
2023-02-02T03:53:17.477Z,1.04
2023-02-02T03:54:17.577Z,1.04
2023-02-02T03:55:17.685Z,1.04
2023-02-02T03:56:17.833Z,1.04
2023-02-02T03:57:17.987Z,1.04
2023-02-02T03:58:18.134Z,1.04
2023-02-02T03:59:18.247Z,1.04
2023-02-02T04:00:18.397Z,1.04
2023-02-02T04:01:18.528Z,1.04
2023-02-02T04:02:18.613Z,1.04
2023-02-02T04:03:18.694Z,1.04
2023-02-02T04:04:18.864Z,1.04
2023-02-02T04:05:19.005Z,1.04
2023-02-02T04:06:19.096Z,1.04
2023-02-02T04:07:19.203Z,1.04
2023-02-02T04:08:19.320Z,1.04
2023-02-02T04:09:19.449Z,1.04
2023-02-02T04:10:19.592Z,1.04
2023-02-02T04:11:19.677Z,1.04
2023-02-02T04:12:19.815Z,1.04
2023-02-02T04:13:19.958Z,1.04
2023-02-02T04:14:20.060Z,1.04
2023-02-02T04:15:20.179Z,1.04
2023-02-02T04:16:20.338Z,1.04
2023-02-02T04:17:20.369Z,1.04
2023-02-02T04:18:20.521Z,1.04
2023-02-02T04:19:20.617Z,1.04
2023-02-02T04:20:20.720Z,1.04
2023-02-02T04:21:20.871Z,1.04
2023-02-02T04:22:21.027Z,1.04
2023-02-02T04:23:21.124Z,1.04
2023-02-02T04:24:21.271Z,1.04
2023-02-02T04:25:21.423Z,1.04
2023-02-02T04:26:21.579Z,1.04
2023-02-02T04:27:21.679Z,1.04
2023-02-02T04:28:21.790Z,1.04
2023-02-02T04:29:21.902Z,1.04
2023-02-02T04:30:21.984Z,1.04
2023-02-02T04:31:22.202Z,1.04
2023-02-02T04:32:22.294Z,1.04
2023-02-02T04:33:22.387Z,1.04
2023-02-02T04:34:22.532Z,1.04
2023-02-02T04:35:22.824Z,1.04
2023-02-02T04:36:22.695Z,1.04
2023-02-02T04:37:22.847Z,1.04
2023-02-02T04:38:23.009Z,1.04
2023-02-02T04:39:23.153Z,1.04
2023-02-02T04:40:23.250Z,1.04
2023-02-02T04:41:23.381Z,1.04
2023-02-02T04:42:23.501Z,1.04
2023-02-02T04:43:23.613Z,1.04
2023-02-02T04:44:23.712Z,1.04
2023-02-02T04:45:24.242Z,1.04
2023-02-02T04:46:23.956Z,1.04
2023-02-02T04:47:24.058Z,1.04
2023-02-02T04:48:24.206Z,1.04
2023-02-02T04:49:24.367Z,1.04
2023-02-02T04:50:24.494Z,1.04
2023-02-02T04:51:24.616Z,1.04
2023-02-02T04:52:24.719Z,1.04
2023-02-02T04:53:24.831Z,1.04
2023-02-02T04:54:24.933Z,1.04
2023-02-02T04:55:25.306Z,1.04
2023-02-02T04:56:25.130Z,1.04
2023-02-02T04:57:25.232Z,1.04
2023-02-02T04:58:25.332Z,1.04
2023-02-02T04:59:25.430Z,1.04
2023-02-02T05:00:25.596Z,1.04
2023-02-02T05:01:25.761Z,1.04
2023-02-02T05:02:25.788Z,1.04
2023-02-02T05:03:25.888Z,1.04
2023-02-02T05:04:26.054Z,1.04
2023-02-02T05:05:26.399Z,1.04
2023-02-02T05:06:26.186Z,1.04
2023-02-02T05:07:26.281Z,1.04
2023-02-02T05:08:26.435Z,1.04
2023-02-02T05:09:26.552Z,1.04
2023-02-02T05:10:26.658Z,1.04
2023-02-02T05:11:26.757Z,1.04
2023-02-02T05:12:26.897Z,1.04
2023-02-02T05:13:26.996Z,1.04
2023-02-02T05:14:27.155Z,1.04
2023-02-02T05:15:27.346Z,1.04
2023-02-02T05:16:29.002Z,1.04
2023-02-02T05:17:27.507Z,1.04
2023-02-02T05:18:27.655Z,1.04
2023-02-02T05:19:27.805Z,1.04
2023-02-02T05:20:27.962Z,1.04
2023-02-02T05:21:28.111Z,1.04
2023-02-02T05:22:28.210Z,1.04
2023-02-02T05:23:28.326Z,1.04
2023-02-02T05:24:28.468Z,1.04
2023-02-02T05:25:28.564Z,1.04
2023-02-02T05:26:28.750Z,1.04
2023-02-02T05:27:28.810Z,1.04
2023-02-02T05:28:28.915Z,1.04
2023-02-02T05:29:29.076Z,1.04
2023-02-02T05:30:29.216Z,1.04
2023-02-02T05:31:29.377Z,1.04
2023-02-02T05:32:29.423Z,1.04
2023-02-02T05:33:29.572Z,1.04
2023-02-02T05:34:29.727Z,1.04
2023-02-02T05:35:29.833Z,1.04
2023-02-02T05:36:29.977Z,1.04
2023-02-02T05:37:30.096Z,1.04
2023-02-02T05:38:30.183Z,1.04
2023-02-02T05:39:30.345Z,1.04
2023-02-02T05:40:30.490Z,1.04
2023-02-02T05:41:30.584Z,1.04
2023-02-02T05:42:30.687Z,1.04
2023-02-02T05:43:30.798Z,1.04
2023-02-02T05:44:30.904Z,1.04
2023-02-02T05:45:30.995Z,1.04
2023-02-02T05:46:31.090Z,1.04
2023-02-02T05:47:31.211Z,1.04
2023-02-02T05:48:31.317Z,1.04
2023-02-02T05:49:31.453Z,1.04
2023-02-02T05:50:31.555Z,1.04
2023-02-02T05:51:31.721Z,1.04
2023-02-02T05:52:31.847Z,1.04
2023-02-02T05:53:32.005Z,1.04
2023-02-02T05:54:32.151Z,1.04
2023-02-02T05:55:32.256Z,1.04
2023-02-02T05:56:32.404Z,1.04
2023-02-02T05:57:32.537Z,1.04
2023-02-02T05:58:32.645Z,1.04
2023-02-02T05:59:32.758Z,1.04
2023-02-02T06:00:32.920Z,1.04
2023-02-02T06:01:33.061Z,1.04
2023-02-02T06:02:33.216Z,1.04
2023-02-02T06:03:33.439Z,1.04
2023-02-02T06:04:33.468Z,1.04
2023-02-02T06:05:33.574Z,2
2023-02-02T06:06:33.673Z,2
2023-02-02T06:07:33.769Z,2
2023-02-02T06:08:33.935Z,2
2023-02-02T06:09:34.044Z,2
2023-02-02T06:10:34.143Z,2
2023-02-02T06:11:34.285Z,3.04
2023-02-02T06:12:34.400Z,3.04
2023-02-02T06:13:34.486Z,4
2023-02-02T06:14:34.594Z,4
2023-02-02T06:15:34.750Z,5.04
2023-02-02T06:16:34.798Z,6
2023-02-02T06:17:34.893Z,6
2023-02-02T06:18:35.045Z,8
2023-02-02T06:19:35.152Z,9.04
2023-02-02T06:20:35.258Z,10
2023-02-02T06:21:35.345Z,12
2023-02-02T06:22:35.457Z,14
2023-02-02T06:23:35.547Z,17.04
2023-02-02T06:24:35.697Z,20
2023-02-02T06:25:35.805Z,24
2023-02-02T06:26:35.949Z,26
2023-02-02T06:27:36.058Z,28
2023-02-02T06:28:36.160Z,37.04
2023-02-02T06:29:36.253Z,42
2023-02-02T06:30:36.348Z,41.04
2023-02-02T06:31:36.637Z,42
2023-02-02T06:32:36.550Z,47.04
2023-02-02T06:33:36.714Z,53.04
2023-02-02T06:34:36.878Z,60
2023-02-02T06:35:36.964Z,67.04
2023-02-02T06:36:37.058Z,77.04
2023-02-02T06:37:37.156Z,91.04
2023-02-02T06:38:37.306Z,103.04
2023-02-02T06:39:37.411Z,117.04
2023-02-02T06:40:37.525Z,133.04
2023-02-02T06:41:37.659Z,147.04
2023-02-02T06:42:37.765Z,165.12
2023-02-02T06:43:37.926Z,187.04
2023-02-02T06:44:38.020Z,200
2023-02-02T06:45:38.171Z,216
2023-02-02T06:46:38.362Z,221.12
2023-02-02T06:47:38.420Z,229.12
2023-02-02T06:48:38.573Z,252
2023-02-02T06:49:38.671Z,286.08
2023-02-02T06:50:38.774Z,328
2023-02-02T06:51:38.930Z,352
2023-02-02T06:52:39.092Z,389.12
2023-02-02T06:53:39.243Z,415.04
2023-02-02T06:54:39.337Z,419.2
2023-02-02T06:55:39.486Z,428.16
2023-02-02T06:56:39.595Z,447.04
2023-02-02T06:57:39.746Z,466.24
2023-02-02T06:58:39.848Z,478.08
2023-02-02T06:59:39.952Z,489.28
2023-02-02T07:00:40.103Z,508.16
2023-02-02T07:01:40.239Z,518.08
2023-02-02T07:02:40.390Z,543.04
2023-02-02T07:03:40.463Z,567.04
2023-02-02T07:04:40.620Z,594.24
2023-02-02T07:05:40.711Z,649.28
2023-02-02T07:06:40.824Z,697.6
2023-02-02T07:07:40.909Z,726.4
2023-02-02T07:08:41.069Z,735.36
2023-02-02T07:09:41.166Z,751.36
2023-02-02T07:11:12.469Z,770.56
2023-02-02T07:11:43.447Z,815.36
2023-02-02T07:12:41.464Z,867.2
2023-02-02T07:13:41.637Z,927.36
2023-02-02T07:14:41.720Z,974.08
2023-02-02T07:15:41.905Z,1019.52
2023-02-02T07:16:42.030Z,1062.4
2023-02-02T07:17:42.174Z,1077.12
2023-02-02T07:18:42.323Z,1098.24
2023-02-02T07:19:42.434Z,1067.52
2023-02-02T07:20:42.537Z,1088
2023-02-02T07:21:42.688Z,1104
2023-02-02T07:22:42.832Z,1112.32
2023-02-02T07:23:42.940Z,1127.04
2023-02-02T07:24:43.115Z,1061.12
2023-02-02T07:25:43.944Z,1020.16
2023-02-02T07:26:43.364Z,1061.12
2023-02-02T07:27:43.441Z,1075.2
2023-02-02T07:28:43.617Z,1167.36
2023-02-02T07:29:43.644Z,1249.28
2023-02-02T07:30:43.891Z,1413.12
2023-02-02T07:31:44.012Z,1445.12
2023-02-02T07:32:44.095Z,1493.76
2023-02-02T07:33:44.255Z,1640.96
2023-02-02T07:34:44.401Z,1683.2
2023-02-02T07:35:44.497Z,1758.72
2023-02-02T07:36:44.644Z,1697.28
2023-02-02T07:37:44.764Z,1643.52
2023-02-02T07:38:44.859Z,1626.88
2023-02-02T07:39:44.995Z,1600
2023-02-02T07:40:45.111Z,1653.76
2023-02-02T07:41:45.217Z,1731.84
2023-02-02T07:42:46.420Z,1652.48
2023-02-02T07:43:45.466Z,1669.12
2023-02-02T07:44:45.570Z,1931.52
2023-02-02T07:45:45.713Z,2012.16
2023-02-02T07:46:45.885Z,1980.16
2023-02-02T07:47:45.914Z,2122.24
2023-02-02T07:48:46.084Z,2182.4
2023-02-02T07:49:46.229Z,2188.8
2023-02-02T07:50:46.322Z,2208
2023-02-02T07:51:47.739Z,2192.64
2023-02-02T07:52:46.519Z,2218.24
2023-02-02T07:53:46.674Z,2316.8
2023-02-02T07:54:46.783Z,2269.44
2023-02-02T07:55:46.932Z,2223.36
2023-02-02T07:56:47.082Z,2182.4
2023-02-02T07:57:47.185Z,2058.24
2023-02-02T07:58:47.356Z,1978.88
2023-02-02T07:59:47.437Z,1955.84
2023-02-02T08:00:47.614Z,1946.88
2023-02-02T08:01:47.683Z,2178.56
2023-02-02T08:02:47.778Z,2250.24
2023-02-02T08:03:47.898Z,2324.48
2023-02-02T08:04:47.998Z,2378.24
2023-02-02T08:05:48.100Z,2519.04
2023-02-02T08:06:48.217Z,2680.32
2023-02-02T08:07:48.347Z,2700.8
2023-02-02T08:08:48.446Z,2685.44
2023-02-02T08:09:48.548Z,2649.6
2023-02-02T08:10:48.650Z,2675.2
2023-02-02T08:11:48.753Z,2538.24
2023-02-02T08:12:48.907Z,2519.04
2023-02-02T08:13:49.009Z,2677.76
2023-02-02T08:14:49.150Z,2597.12
2023-02-02T08:15:49.325Z,2577.92
2023-02-02T08:16:49.414Z,2488.32
2023-02-02T08:17:49.568Z,2417.92
2023-02-02T08:18:49.728Z,2510.08
2023-02-02T08:19:49.814Z,2708.48
2023-02-02T08:20:49.979Z,2752
2023-02-02T08:21:50.087Z,2693.12
2023-02-02T08:22:50.212Z,2723.84
2023-02-02T08:23:50.359Z,2790.4
2023-02-02T08:24:50.475Z,2882.56
2023-02-02T08:25:50.632Z,2982.4
2023-02-02T08:26:50.837Z,3438.08
2023-02-02T08:27:50.873Z,3660.8
2023-02-02T08:28:51.025Z,4387.84
2023-02-02T08:29:51.172Z,4392.96
2023-02-02T08:30:51.363Z,4472.32
2023-02-02T08:31:51.500Z,4833.28
2023-02-02T08:32:51.526Z,5294.08
2023-02-02T08:33:51.722Z,5422.08
2023-02-02T08:34:51.818Z,5186.56
2023-02-02T08:35:51.889Z,4984.32
2023-02-02T08:36:51.993Z,5493.76
2023-02-02T08:37:52.139Z,5790.72
2023-02-02T08:38:52.241Z,5975.04
2023-02-02T08:39:52.385Z,6261.76
2023-02-02T08:40:52.565Z,5596.16
2023-02-02T08:41:52.648Z,6154.24
2023-02-02T08:42:52.795Z,6804.48
2023-02-02T08:43:52.926Z,6671.36
2023-02-02T08:46:00.812Z,6579.2
2023-02-02T08:46:53.264Z,5232.64
2023-02-02T08:48:05.457Z,4928
2023-02-02T08:48:53.542Z,4664.32
2023-02-02T08:49:53.692Z,4369.92
2023-02-02T08:50:53.846Z,4216.32
2023-02-02T08:51:53.999Z,4234.24
2023-02-02T08:52:54.098Z,3942.4
2023-02-02T08:53:54.246Z,3655.68
2023-02-02T08:54:54.351Z,3550.72
2023-02-02T08:55:54.501Z,3445.76
2023-02-02T08:56:54.602Z,3560.96
2023-02-02T08:57:54.754Z,3724.8
2023-02-02T08:58:54.924Z,4288
2023-02-02T08:59:55.010Z,4354.56
2023-02-02T09:00:55.250Z,4134.4
2023-02-02T09:01:55.269Z,4510.72
2023-02-02T09:02:55.372Z,4495.36
2023-02-02T09:03:55.477Z,4032
2023-02-02T09:04:55.614Z,4503.04
2023-02-02T09:05:55.765Z,4858.88
2023-02-02T09:06:55.919Z,4464.64
2023-02-02T09:07:56.082Z,3924.48
2023-02-02T09:08:56.167Z,3604.48
2023-02-02T09:09:56.270Z,3471.36
2023-02-02T09:10:56.375Z,3320.32
2023-02-02T09:11:56.473Z,3215.36
2023-02-02T09:12:56.624Z,3182.08
2023-02-02T09:13:56.739Z,3297.28
2023-02-02T09:14:56.881Z,3404.8
2023-02-02T09:15:56.979Z,3409.92
2023-02-02T09:16:57.158Z,3530.24
2023-02-02T09:17:57.288Z,3724.8
2023-02-02T09:18:57.392Z,3944.96
2023-02-02T09:19:57.496Z,4116.48
2023-02-02T09:20:57.589Z,4157.44
2023-02-02T09:21:57.692Z,4390.4
2023-02-02T09:22:57.850Z,4661.76
2023-02-02T09:23:57.959Z,4940.8
2023-02-02T09:24:58.046Z,4738.56
2023-02-02T09:25:58.145Z,4618.24
2023-02-02T09:26:58.327Z,4874.24
2023-02-02T09:27:58.401Z,5158.4
2023-02-02T09:28:58.497Z,5253.12
2023-02-02T09:29:58.600Z,5857.28
2023-02-02T09:30:58.773Z,6650.88
2023-02-02T09:31:58.920Z,6789.12
2023-02-02T09:32:59.005Z,6661.12
2023-02-02T09:33:59.103Z,7106.56
2023-02-02T09:34:59.217Z,6707.2
2023-02-02T09:35:59.367Z,6589.44
2023-02-02T09:36:59.468Z,6497.28
2023-02-02T09:37:59.612Z,6912
2023-02-02T09:38:59.710Z,7557.12
2023-02-02T09:39:59.820Z,7777.28
2023-02-02T09:40:59.923Z,7859.2
2023-02-02T09:42:00.043Z,6973.44
2023-02-02T09:43:00.140Z,6543.36
2023-02-02T09:44:00.232Z,6430.72
2023-02-02T09:45:00.347Z,6318.08
2023-02-02T09:46:00.470Z,6891.52
2023-02-02T09:47:00.598Z,6942.72
2023-02-02T09:48:00.693Z,6174.72
2023-02-02T09:49:00.791Z,6440.96
2023-02-02T09:50:00.900Z,6272
2023-02-02T09:51:00.992Z,6210.56
2023-02-02T09:52:01.143Z,6154.24
2023-02-02T09:53:01.240Z,6215.68
2023-02-02T09:54:01.342Z,5908.48
2023-02-02T09:55:01.523Z,5575.68
2023-02-02T09:56:01.643Z,5498.88
2023-02-02T09:57:01.811Z,5437.44
2023-02-02T09:58:01.895Z,5345.28
2023-02-02T09:59:10.272Z,5109.76
2023-02-02T10:00:02.120Z,5498.88
2023-02-02T10:01:02.293Z,6282.24
2023-02-02T10:02:02.395Z,7004.16
2023-02-02T10:03:02.506Z,7854.08
2023-02-02T10:04:02.765Z,7705.6
2023-02-02T10:05:02.711Z,7567.36
2023-02-02T10:06:02.872Z,7060.48
2023-02-02T10:07:02.964Z,6958.08
2023-02-02T10:08:03.073Z,6225.92
2023-02-02T10:09:03.182Z,6318.08
2023-02-02T10:10:03.316Z,6400
2023-02-02T10:11:03.418Z,6850.56
2023-02-02T10:12:03.571Z,7915.52
2023-02-02T10:13:03.671Z,7992.32
2023-02-02T10:14:03.803Z,7951.36
2023-02-02T10:15:03.952Z,7219.2
2023-02-02T10:16:04.288Z,7121.92
2023-02-02T10:17:04.129Z,6932.48
2023-02-02T10:18:05.976Z,7562.24
2023-02-02T10:19:04.395Z,7091.2
2023-02-02T10:20:04.490Z,7500.8
2023-02-02T10:21:04.629Z,7383.04
2023-02-02T10:22:04.781Z,6865.92
2023-02-02T10:23:04.884Z,5703.68
2023-02-02T10:24:04.991Z,5550.08
2023-02-02T10:25:05.114Z,6359.04
2023-02-02T10:26:05.239Z,5570.56
2023-02-02T10:27:05.347Z,4825.6
2023-02-02T10:28:05.496Z,5452.8
2023-02-02T10:29:05.605Z,5852.16
2023-02-02T10:30:05.698Z,6016
2023-02-02T10:31:05.903Z,6727.68
2023-02-02T10:32:06.009Z,7454.72
2023-02-02T10:33:05.999Z,7792.64
2023-02-02T10:34:06.153Z,8448
2023-02-02T10:35:13.366Z,8744.96
2023-02-02T10:36:06.433Z,7480.32
2023-02-02T10:37:06.554Z,7029.76
2023-02-02T10:38:07.451Z,8094.72
2023-02-02T10:39:06.758Z,9523.2
2023-02-02T10:40:06.886Z,8970.24
2023-02-02T10:41:06.956Z,9753.6
2023-02-02T10:42:07.076Z,10460.16
2023-02-02T10:43:07.172Z,9922.56
2023-02-02T10:44:07.329Z,8565.76
2023-02-02T10:45:07.478Z,8796.16
2023-02-02T10:46:07.678Z,9436.16
2023-02-02T10:47:07.735Z,9830.399
2023-02-02T10:48:07.868Z,8683.52
2023-02-02T10:49:07.979Z,7116.8
2023-02-02T10:50:08.128Z,6789.12
2023-02-02T10:51:08.305Z,6451.2
2023-02-02T10:52:08.471Z,6302.72
2023-02-02T10:53:08.578Z,6630.4
2023-02-02T10:54:08.738Z,7152.64
2023-02-02T10:55:08.888Z,7285.76
2023-02-02T10:56:09.048Z,7301.12
2023-02-02T10:57:09.136Z,8401.92
2023-02-02T10:58:09.281Z,8151.04
2023-02-02T10:59:09.437Z,6599.68
2023-02-02T11:00:09.569Z,6558.72
2023-02-02T11:01:09.731Z,6461.44
2023-02-02T11:02:20.272Z,4203.52
2023-02-02T11:03:10.025Z,4224
2023-02-02T11:04:10.048Z,4544
2023-02-02T11:05:10.196Z,5468.16
2023-02-02T11:06:10.302Z,5918.72
2023-02-02T11:07:10.404Z,4561.92
2023-02-02T11:08:10.501Z,3814.4
2023-02-02T11:09:10.598Z,3584
2023-02-02T11:10:10.756Z,3379.2
2023-02-02T11:11:10.857Z,3596.8
2023-02-02T11:12:10.961Z,3804.16
2023-02-02T11:13:11.107Z,3328
2023-02-02T11:14:11.217Z,3256.32
2023-02-02T11:15:11.318Z,3617.28
2023-02-02T11:16:11.452Z,3363.84
2023-02-02T11:17:11.565Z,2967.04
2023-02-02T11:18:11.664Z,3481.6
2023-02-02T11:19:11.824Z,5061.12
2023-02-02T11:20:11.917Z,5422.08
2023-02-02T11:21:12.067Z,4034.56
2023-02-02T11:22:12.176Z,3453.44
2023-02-02T11:23:12.283Z,3655.68
2023-02-02T11:24:12.386Z,4518.4
2023-02-02T11:25:12.531Z,4715.52
2023-02-02T11:26:12.625Z,5166.08
2023-02-02T11:27:12.786Z,5826.56
2023-02-02T11:28:12.878Z,5754.88
2023-02-02T11:29:12.981Z,5601.28
2023-02-02T11:30:13.106Z,6425.6
2023-02-02T11:31:13.266Z,5857.28
2023-02-02T11:32:13.281Z,5094.4
2023-02-02T11:33:13.386Z,5683.2
2023-02-02T11:34:13.488Z,6384.64
2023-02-02T11:35:13.595Z,7674.88
2023-02-02T11:36:13.695Z,7413.76
2023-02-02T11:37:13.800Z,7552
2023-02-02T11:38:13.980Z,6983.68
2023-02-02T11:39:14.052Z,7080.96
2023-02-02T11:40:14.151Z,6927.36
2023-02-02T11:41:14.300Z,6620.16
2023-02-02T11:42:14.401Z,5949.44
2023-02-02T11:43:14.501Z,5923.84
2023-02-02T11:44:14.652Z,6497.28
2023-02-02T11:45:14.755Z,6302.72
2023-02-02T11:46:14.941Z,7516.16
2023-02-02T11:47:15.003Z,7485.44
2023-02-02T11:48:15.112Z,6901.76
2023-02-02T11:49:15.257Z,6333.44
2023-02-02T11:50:15.367Z,5908.48
2023-02-02T11:51:15.597Z,5201.92
2023-02-02T11:52:15.679Z,5066.24
2023-02-02T11:53:15.769Z,5473.28
2023-02-02T11:54:15.869Z,5565.44
2023-02-02T11:55:15.985Z,4968.96
2023-02-02T11:56:16.074Z,5642.24
2023-02-02T11:57:16.184Z,6108.16
2023-02-02T11:58:16.330Z,6374.4
2023-02-02T11:59:16.471Z,6236.16
2023-02-02T12:00:16.630Z,5980.16
2023-02-02T12:01:16.758Z,6103.04
2023-02-02T12:02:16.956Z,7214.08
2023-02-02T12:03:17.042Z,7224.32
2023-02-02T12:04:17.325Z,6932.48
2023-02-02T12:05:17.293Z,7070.72
2023-02-02T12:06:17.407Z,7900.16
2023-02-02T12:07:17.570Z,8279.04
2023-02-02T12:08:17.747Z,8401.92
2023-02-02T12:09:17.866Z,8217.6
2023-02-02T12:10:17.991Z,7572.48
2023-02-02T12:11:18.097Z,6394.88
2023-02-02T12:12:18.240Z,6159.36
2023-02-02T12:13:18.394Z,6440.96
2023-02-02T12:14:18.548Z,7572.48
2023-02-02T12:15:18.608Z,8186.88
2023-02-02T12:16:18.816Z,8238.08
2023-02-02T12:17:18.857Z,8294.4
2023-02-02T12:18:18.961Z,8033.28
2023-02-02T12:19:19.095Z,8238.08
2023-02-02T12:20:19.212Z,8232.96
2023-02-02T12:21:19.307Z,7828.48
2023-02-02T12:22:19.455Z,8688.64
2023-02-02T12:23:19.607Z,10547.2
2023-02-02T12:24:19.777Z,11868.16
2023-02-02T12:25:19.873Z,11827.2
2023-02-02T12:26:20.124Z,11171.84
2023-02-02T12:27:20.072Z,8458.24
2023-02-02T12:28:20.188Z,7710.72
2023-02-02T12:29:20.286Z,9221.12
2023-02-02T12:30:20.375Z,11048.96
2023-02-02T12:31:20.602Z,10670.08
2023-02-02T12:32:20.621Z,8719.359
2023-02-02T12:33:20.774Z,7403.52
2023-02-02T12:34:20.886Z,7782.4
2023-02-02T12:35:20.980Z,6589.44
2023-02-02T12:36:21.077Z,5616.64
2023-02-02T12:37:21.181Z,4823.04
2023-02-02T12:38:21.284Z,5168.64
2023-02-02T12:39:21.375Z,6323.2
2023-02-02T12:40:21.480Z,8811.52
2023-02-02T12:41:21.586Z,8857.6
2023-02-02T12:42:21.680Z,8478.72
2023-02-02T12:43:21.839Z,9328.64
2023-02-02T12:44:21.946Z,9052.16
2023-02-02T12:45:22.049Z,7782.4
2023-02-02T12:46:22.151Z,7772.16
2023-02-02T12:47:22.306Z,7654.4
2023-02-02T12:48:22.408Z,8089.6
2023-02-02T12:49:22.521Z,7587.84
2023-02-02T12:50:22.800Z,8335.36